Share

Marshall, ND (58644)

NDDOT Golden Valley ND 200 MP 131 (MND004) Elev 2164 ft | 47.30 °N, 102.05 °W | Change Station

Current weather conditions updated 48 minutes ago

Overcast
Overcast
36 °F
Feels Like 29 °F
N
9
Wind Variable Wind from ESE
Gusts 11.0 mph
Sunrise 5:55 AM
Sunset 7:42 PM
Moon Waning Gibbous

Today is forecast to be Much Warmer than yesterday.

Pressure 30.04 in
Visibility 10.0 miles
Clouds Scattered Clouds 6500 ft
Overcast 8000 ft
Windchill 29 °F
Dew Point 22 °F
Humidity 58%
Rainfall -999.00 in
Snow Depth Not available.
UV 0 out of 16
Pollen 7.40 out of 12
Air Quality Not available.
Flu Activity Sporadic
METAR KD57 180735Z AUTO 10007KT 10SM SCT065 OVC080 00/M05 A3004 RMK AO2

More Conditions Fewer Conditions

Pressure 30.04 in
Visibility 10.0 miles
Clouds Scattered Clouds 6500 ft
Overcast 8000 ft
Windchill 29 °F
Dew Point 22 °F
Humidity 58%
Rainfall -999.00 in
Snow Depth Not available.
UV 0 out of 16
Pollen 7.40 out of 12
Air Quality Not available.
Flu Activity Sporadic
METAR KD57 180735Z AUTO 10007KT 10SM SCT065 OVC080 00/M05 A3004 RMK AO2

More Conditions Fewer Conditions

10-Day Forecast

Almanac

Astronomy

Apr. 18, 2014 Rise Set
Actual Time 5:55 AM MDT 7:42 PM MDT
Civil Twilight 5:23 AM MDT 8:14 PM MDT
Nautical Twilight 4:43 AM MDT 8:54 PM MDT
Astronomical Twilight 4:00 AM MDT 9:38 PM MDT
Moon 11:38 PM MDT 8:10 AM MDT
Length of Visible Light 14h 51m
Length of Day
13h 46m
Tomorrow will be 3m 12s longer.
Waning Gibbous, 90% of the Moon is Illuminated
Today
Waning Gibbous
Apr 22
Last Quarter
Apr 29
New
May 6
First Quarter
May 14
Full

Today's Extremes

State Highs State Lows

Community

  • SUNRISE THROUGH THE TREES.
    SUNRISE THROUGH THE TREES.
  • Dog Wood Blossoms
    Dog Wood Blossoms
  • Morning Light
    Morning Light
  • New Day
    New Day
  • Lake Michigan Sunrise
    Lake Michigan Sunrise

WunderPhotos

Upload Photos

1,702,279 photos uploaded!

WunderBlogs® & News

Nearby

Snow Depth

Station Depth Elevation
No new snow has been reported.

Coastal Water Temperatures

Place Temperature
No Stations Reporting

Earthquake Activity

City Distance Mag. Time & Date
No recent earthquake activity has been reported nearby.
Minimum magnitude displayed is 2.5.

Nearby Weather Stations

Station Location Temp. Windchill Dew Point Humidity Wind Precip. Elev Updated Type
NDDOT Golden Valley ND 200 MP 131, Golden Valley, ND 36 °F 29 °F 22 °F 58% ESE  at  9 mph 0.00 in / hr 2164 ft 1:05 AM MDT MADIS
Killdeer, ND 34.9 °F 30 °F 26 °F 70% ESE  at  6.0 mph - / hr 2215 ft 1:44 AM MDT Normal

Show More Stations Show Fewer Stations

What do you think?

We're not finished. Please let us know what you like, what you don't like, and what you are still missing.